sensor_id;sensor_type;location;lat;lon;timestamp;pressure;altitude;pressure_sealevel;temperature;humidity
57094;BME280;42970;50.996;3.706;2023-02-27T00:00:54;77246.03;;;-146.65;77.00
57094;BME280;42970;50.996;3.706;2023-02-27T00:03:20;77274.28;;;-146.65;77.29
57094;BME280;42970;50.996;3.706;2023-02-27T00:05:45;77278.31;;;-146.65;77.24
57094;BME280;42970;50.996;3.706;2023-02-27T00:08:11;77280.34;;;-146.65;77.16
57094;BME280;42970;50.996;3.706;2023-02-27T00:10:36;77278.31;;;-146.65;77.26
57094;BME280;42970;50.996;3.706;2023-02-27T00:13:01;77294.47;;;-146.65;77.83
57094;BME280;42970;50.996;3.706;2023-02-27T00:15:27;77272.28;;;-146.65;77.61
57094;BME280;42970;50.996;3.706;2023-02-27T00:17:54;77294.47;;;-146.65;77.51
57094;BME280;42970;50.996;3.706;2023-02-27T00:20:20;77292.44;;;-146.65;77.67
57094;BME280;42970;50.996;3.706;2023-02-27T00:22:45;77292.44;;;-146.65;77.34
57094;BME280;42970;50.996;3.706;2023-02-27T00:25:11;77280.34;;;-146.65;77.17
57094;BME280;42970;50.996;3.706;2023-02-27T00:27:37;77288.41;;;-146.65;77.31
57094;BME280;42970;50.996;3.706;2023-02-27T00:30:03;77292.44;;;-146.65;77.45
57094;BME280;42970;50.996;3.706;2023-02-27T00:32:29;77304.56;;;-146.65;77.49
57094;BME280;42970;50.996;3.706;2023-02-27T00:34:55;77306.56;;;-146.65;78.13
57094;BME280;42970;50.996;3.706;2023-02-27T00:37:20;77314.66;;;-146.65;78.42
57094;BME280;42970;50.996;3.706;2023-02-27T00:39:46;77318.69;;;-146.65;78.75
57094;BME280;42970;50.996;3.706;2023-02-27T00:42:11;77310.63;;;-146.65;79.25
57094;BME280;42970;50.996;3.706;2023-02-27T00:44:36;77332.81;;;-146.65;79.61
57094;BME280;42970;50.996;3.706;2023-02-27T00:47:02;77332.81;;;-146.65;79.80
57094;BME280;42970;50.996;3.706;2023-02-27T00:49:28;77320.69;;;-146.65;79.60
57094;BME280;42970;50.996;3.706;2023-02-27T00:51:53;77320.69;;;-146.65;79.86
57094;BME280;42970;50.996;3.706;2023-02-27T00:54:19;77328.78;;;-146.65;79.42
57094;BME280;42970;50.996;3.706;2023-02-27T00:56:44;77316.66;;;-146.65;79.43
57094;BME280;42970;50.996;3.706;2023-02-27T00:59:10;77316.66;;;-146.65;79.37
57094;BME280;42970;50.996;3.706;2023-02-27T01:01:35;77312.63;;;-146.65;78.79
57094;BME280;42970;50.996;3.706;2023-02-27T01:04:00;77316.66;;;-146.65;79.07
57094;BME280;42970;50.996;3.706;2023-02-27T01:06:26;77324.75;;;-146.65;79.14
57094;BME280;42970;50.996;3.706;2023-02-27T01:08:52;77336.84;;;-146.65;79.32
57094;BME280;42970;50.996;3.706;2023-02-27T01:11:17;77320.69;;;-146.65;79.26
57094;BME280;42970;50.996;3.706;2023-02-27T01:13:43;77326.75;;;-146.65;79.25
57094;BME280;42970;50.996;3.706;2023-02-27T01:16:10;77322.72;;;-146.65;79.17
57094;BME280;42970;50.996;3.706;2023-02-27T01:18:35;77334.81;;;-146.65;79.58
57094;BME280;42970;50.996;3.706;2023-02-27T01:21:01;77328.78;;;-146.65;79.27
57094;BME280;42970;50.996;3.706;2023-02-27T01:23:26;77332.81;;;-146.65;79.56
57094;BME280;42970;50.996;3.706;2023-02-27T01:25:51;77330.78;;;-146.65;79.30
57094;BME280;42970;50.996;3.706;2023-02-27T01:28:17;77344.91;;;-146.65;79.55
57094;BME280;42970;50.996;3.706;2023-02-27T01:30:42;77353.00;;;-146.65;79.53
57094;BME280;42970;50.996;3.706;2023-02-27T01:33:08;77338.88;;;-146.65;79.75
57094;BME280;42970;50.996;3.706;2023-02-27T01:35:33;77344.91;;;-146.65;79.67
57094;BME280;42970;50.996;3.706;2023-02-27T01:37:59;77346.94;;;-146.65;79.81
57094;BME280;42970;50.996;3.706;2023-02-27T01:40:25;77348.94;;;-146.65;79.60
57094;BME280;42970;50.996;3.706;2023-02-27T01:42:50;77340.88;;;-146.65;79.73
57094;BME280;42970;50.996;3.706;2023-02-27T01:47:42;77340.88;;;-146.65;79.93
57094;BME280;42970;50.996;3.706;2023-02-27T01:50:09;77361.06;;;-146.65;80.55
57094;BME280;42970;50.996;3.706;2023-02-27T01:52:35;77367.13;;;-146.65;80.43
57094;BME280;42970;50.996;3.706;2023-02-27T01:55:01;77336.84;;;-146.65;80.32
57094;BME280;42970;50.996;3.706;2023-02-27T01:57:26;77342.91;;;-146.65;80.29
57094;BME280;42970;50.996;3.706;2023-02-27T01:59:52;77367.13;;;-146.65;80.54
57094;BME280;42970;50.996;3.706;2023-02-27T02:02:22;77369.13;;;-146.65;81.15
57094;BME280;42970;50.996;3.706;2023-02-27T02:04:49;77369.13;;;-146.65;80.92
57094;BME280;42970;50.996;3.706;2023-02-27T02:07:15;77357.03;;;-146.65;81.40
57094;BME280;42970;50.996;3.706;2023-02-27T02:09:43;77385.28;;;-146.65;81.66
57094;BME280;42970;50.996;3.706;2023-02-27T02:12:10;77385.28;;;-146.65;82.05
57094;BME280;42970;50.996;3.706;2023-02-27T02:14:37;77383.25;;;-146.65;81.76
57094;BME280;42970;50.996;3.706;2023-02-27T02:21:59;77389.31;;;-146.65;81.96
57094;BME280;42970;50.996;3.706;2023-02-27T02:30:33;77389.31;;;-146.65;82.43
57094;BME280;42970;50.996;3.706;2023-02-27T02:42:36;77399.41;;;-146.65;83.20
57094;BME280;42970;50.996;3.706;2023-02-27T02:47:41;77395.38;;;-146.65;83.06
57094;BME280;42970;50.996;3.706;2023-02-27T02:50:12;77413.53;;;-146.65;83.20
57094;BME280;42970;50.996;3.706;2023-02-27T02:55:43;77413.53;;;-146.65;83.24
57094;BME280;42970;50.996;3.706;2023-02-27T03:01:14;77397.38;;;-146.65;83.27
57094;BME280;42970;50.996;3.706;2023-02-27T03:03:42;77393.34;;;-146.65;83.43
57094;BME280;42970;50.996;3.706;2023-02-27T03:06:10;77413.53;;;-146.65;83.44
57094;BME280;42970;50.996;3.706;2023-02-27T03:08:47;77419.59;;;-146.65;83.81
57094;BME280;42970;50.996;3.706;2023-02-27T03:11:15;77437.75;;;-146.65;83.80
57094;BME280;42970;50.996;3.706;2023-02-27T03:13:45;77439.75;;;-146.65;83.66
57094;BME280;42970;50.996;3.706;2023-02-27T03:16:13;77413.53;;;-146.65;83.84
57094;BME280;42970;50.996;3.706;2023-02-27T03:18:48;77429.66;;;-146.65;83.63
57094;BME280;42970;50.996;3.706;2023-02-27T03:21:17;77437.75;;;-146.65;83.58
57094;BME280;42970;50.996;3.706;2023-02-27T03:23:46;77429.66;;;-146.65;83.58
57094;BME280;42970;50.996;3.706;2023-02-27T03:26:16;77439.75;;;-146.65;83.50
57094;BME280;42970;50.996;3.706;2023-02-27T03:29:18;77441.78;;;-146.65;83.58
57094;BME280;42970;50.996;3.706;2023-02-27T03:31:46;77435.72;;;-146.65;83.57
57094;BME280;42970;50.996;3.706;2023-02-27T03:36:55;77449.84;;;-146.65;83.78
57094;BME280;42970;50.996;3.706;2023-02-27T03:39:34;77439.75;;;-146.65;83.98
57094;BME280;42970;50.996;3.706;2023-02-27T03:42:10;77445.81;;;-146.65;83.68
57094;BME280;42970;50.996;3.706;2023-02-27T03:44:46;77455.91;;;-146.65;84.00
57094;BME280;42970;50.996;3.706;2023-02-27T03:47:15;77451.88;;;-146.65;84.14
57094;BME280;42970;50.996;3.706;2023-02-27T03:49:40;77455.91;;;-146.65;84.29
57094;BME280;42970;50.996;3.706;2023-02-27T03:52:06;77463.97;;;-146.65;84.52
57094;BME280;42970;50.996;3.706;2023-02-27T03:54:33;77455.91;;;-146.65;84.62
57094;BME280;42970;50.996;3.706;2023-02-27T03:57:02;77451.88;;;-146.65;84.62
57094;BME280;42970;50.996;3.706;2023-02-27T03:59:27;77457.94;;;-146.65;84.87
57094;BME280;42970;50.996;3.706;2023-02-27T04:01:54;77455.91;;;-146.65;84.97
57094;BME280;42970;50.996;3.706;2023-02-27T04:04:20;77449.84;;;-146.65;85.16
57094;BME280;42970;50.996;3.706;2023-02-27T04:06:48;77466.00;;;-146.65;85.43
57094;BME280;42970;50.996;3.706;2023-02-27T04:09:49;77474.06;;;-146.65;85.92
57094;BME280;42970;50.996;3.706;2023-02-27T04:12:43;77488.19;;;-146.65;86.18
57094;BME280;42970;50.996;3.706;2023-02-27T04:22:59;77478.09;;;-146.65;86.61
57094;BME280;42970;50.996;3.706;2023-02-27T04:28:06;77490.22;;;-146.65;87.17
57094;BME280;42970;50.996;3.706;2023-02-27T04:31:17;77498.28;;;-146.65;87.62
57094;BME280;42970;50.996;3.706;2023-02-27T04:35:55;77500.31;;;-146.65;88.25
57094;BME280;42970;50.996;3.706;2023-02-27T04:40:53;77510.41;;;-146.65;88.70
57094;BME280;42970;50.996;3.706;2023-02-27T04:43:19;77502.31;;;-146.65;88.65
57094;BME280;42970;50.996;3.706;2023-02-27T04:45:46;77506.34;;;-146.65;88.79
57094;BME280;42970;50.996;3.706;2023-02-27T04:48:14;77514.44;;;-146.65;88.88
57094;BME280;42970;50.996;3.706;2023-02-27T04:50:45;77502.31;;;-146.65;89.11
57094;BME280;42970;50.996;3.706;2023-02-27T04:53:16;77508.38;;;-146.65;89.13
57094;BME280;42970;50.996;3.706;2023-02-27T04:55:47;77510.41;;;-146.65;88.79
57094;BME280;42970;50.996;3.706;2023-02-27T04:58:25;77506.34;;;-146.65;88.86
57094;BME280;42970;50.996;3.706;2023-02-27T05:01:00;77524.53;;;-146.65;89.13
57094;BME280;42970;50.996;3.706;2023-02-27T05:03:29;77526.53;;;-146.65;89.25
57094;BME280;42970;50.996;3.706;2023-02-27T05:05:56;77528.56;;;-146.65;89.53
57094;BME280;42970;50.996;3.706;2023-02-27T05:10:57;77534.63;;;-146.65;89.73
57094;BME280;42970;50.996;3.706;2023-02-27T05:13:28;77536.63;;;-146.65;89.92
57094;BME280;42970;50.996;3.706;2023-02-27T05:16:30;77524.53;;;-146.65;89.68
57094;BME280;42970;50.996;3.706;2023-02-27T05:18:47;77530.56;;;-146.65;89.59
57094;BME280;42970;50.996;3.706;2023-02-27T05:21:33;77536.63;;;-146.65;89.76
57094;BME280;42970;50.996;3.706;2023-02-27T05:34:41;77546.72;;;-146.65;90.24
57094;BME280;42970;50.996;3.706;2023-02-27T05:37:15;77554.78;;;-146.65;90.38
57094;BME280;42970;50.996;3.706;2023-02-27T05:39:42;77550.75;;;-146.65;90.73
57094;BME280;42970;50.996;3.706;2023-02-27T05:42:18;77554.78;;;-146.65;90.51
57094;BME280;42970;50.996;3.706;2023-02-27T05:44:48;77566.91;;;-146.65;90.49
57094;BME280;42970;50.996;3.706;2023-02-27T05:47:17;77562.88;;;-146.65;90.79
57094;BME280;42970;50.996;3.706;2023-02-27T05:49:51;77562.88;;;-146.65;90.69
57094;BME280;42970;50.996;3.706;2023-02-27T05:52:19;77560.84;;;-146.65;90.68
57094;BME280;42970;50.996;3.706;2023-02-27T05:54:48;77548.75;;;-146.65;90.80
57094;BME280;42970;50.996;3.706;2023-02-27T05:57:48;77572.97;;;-146.65;90.75
57094;BME280;42970;50.996;3.706;2023-02-27T06:02:50;77562.88;;;-146.65;90.91
57094;BME280;42970;50.996;3.706;2023-02-27T06:05:17;77562.88;;;-146.65;90.99
57094;BME280;42970;50.996;3.706;2023-02-27T06:07:43;77568.91;;;-146.65;91.12
57094;BME280;42970;50.996;3.706;2023-02-27T06:10:13;77574.97;;;-146.65;90.88
57094;BME280;42970;50.996;3.706;2023-02-27T06:12:38;77583.03;;;-146.65;90.97
57094;BME280;42970;50.996;3.706;2023-02-27T06:15:04;77572.97;;;-146.65;91.13
57094;BME280;42970;50.996;3.706;2023-02-27T06:17:29;77574.97;;;-146.65;91.21
57094;BME280;42970;50.996;3.706;2023-02-27T06:19:55;77581.03;;;-146.65;91.32
57094;BME280;42970;50.996;3.706;2023-02-27T06:22:20;77585.06;;;-146.65;91.41
57094;BME280;42970;50.996;3.706;2023-02-27T06:24:45;77583.03;;;-146.65;91.36
57094;BME280;42970;50.996;3.706;2023-02-27T06:27:11;77589.09;;;-146.65;91.41
57094;BME280;42970;50.996;3.706;2023-02-27T06:29:36;77595.16;;;-146.65;91.54
57094;BME280;42970;50.996;3.706;2023-02-27T06:32:01;77607.25;;;-146.65;91.69
57094;BME280;42970;50.996;3.706;2023-02-27T06:34:26;77607.25;;;-146.65;91.79
57094;BME280;42970;50.996;3.706;2023-02-27T06:36:52;77603.22;;;-146.65;91.94
57094;BME280;42970;50.996;3.706;2023-02-27T06:39:18;77599.19;;;-146.65;91.84
57094;BME280;42970;50.996;3.706;2023-02-27T06:41:43;77579.00;;;-146.65;91.61
57094;BME280;42970;50.996;3.706;2023-02-27T06:44:08;77593.13;;;-146.65;91.21
57094;BME280;42970;50.996;3.706;2023-02-27T06:46:34;77579.00;;;-146.65;91.21
57094;BME280;42970;50.996;3.706;2023-02-27T06:48:59;77591.13;;;-146.65;91.29
57094;BME280;42970;50.996;3.706;2023-02-27T06:51:24;77566.91;;;-146.65;91.33
57094;BME280;42970;50.996;3.706;2023-02-27T06:53:50;77570.94;;;-146.65;91.13
57094;BME280;42970;50.996;3.706;2023-02-27T06:56:15;77574.97;;;-146.65;91.20
57094;BME280;42970;50.996;3.706;2023-02-27T06:58:41;77581.03;;;-146.65;90.91
57094;BME280;42970;50.996;3.706;2023-02-27T07:01:06;77564.88;;;-146.65;90.77
57094;BME280;42970;50.996;3.706;2023-02-27T07:03:31;77562.88;;;-146.65;90.79
57094;BME280;42970;50.996;3.706;2023-02-27T07:05:57;77552.78;;;-146.65;90.60
57094;BME280;42970;50.996;3.706;2023-02-27T07:08:23;77562.88;;;-146.65;90.24
57094;BME280;42970;50.996;3.706;2023-02-27T07:10:48;77546.72;;;-146.65;90.16
57094;BME280;42970;50.996;3.706;2023-02-27T07:13:13;77552.78;;;-146.65;89.77
57094;BME280;42970;50.996;3.706;2023-02-27T07:15:39;77552.78;;;-146.65;89.73
57094;BME280;42970;50.996;3.706;2023-02-27T07:18:04;77550.75;;;-146.65;89.72
57094;BME280;42970;50.996;3.706;2023-02-27T07:20:30;77538.66;;;-146.65;89.28
57094;BME280;42970;50.996;3.706;2023-02-27T07:22:55;77544.69;;;-146.65;89.00
57094;BME280;42970;50.996;3.706;2023-02-27T07:25:20;77536.63;;;-146.65;88.83
57094;BME280;42970;50.996;3.706;2023-02-27T07:27:46;77522.50;;;-146.65;88.13
57094;BME280;42970;50.996;3.706;2023-02-27T07:30:13;77516.44;;;-146.65;87.49
57094;BME280;42970;50.996;3.706;2023-02-27T07:32:39;77498.28;;;-146.65;86.81
57094;BME280;42970;50.996;3.706;2023-02-27T07:35:04;77484.16;;;-146.65;86.74
57094;BME280;42970;50.996;3.706;2023-02-27T07:37:29;77488.19;;;-146.65;86.20
57094;BME280;42970;50.996;3.706;2023-02-27T07:39:55;77476.09;;;-146.65;85.65
57094;BME280;42970;50.996;3.706;2023-02-27T07:42:20;77453.88;;;-146.65;85.27
57094;BME280;42970;50.996;3.706;2023-02-27T07:44:45;77466.00;;;-146.65;84.64
57094;BME280;42970;50.996;3.706;2023-02-27T07:47:11;77441.78;;;-146.65;84.34
57094;BME280;42970;50.996;3.706;2023-02-27T07:49:36;77447.84;;;-146.65;83.35
57094;BME280;42970;50.996;3.706;2023-02-27T07:52:02;77441.78;;;-146.65;82.73
57094;BME280;42970;50.996;3.706;2023-02-27T07:54:27;77421.59;;;-146.65;82.65
57094;BME280;42970;50.996;3.706;2023-02-27T07:56:52;77409.50;;;-146.65;82.33
57094;BME280;42970;50.996;3.706;2023-02-27T07:59:17;77405.47;;;-146.65;81.76
57094;BME280;42970;50.996;3.706;2023-02-27T08:01:43;77399.41;;;-146.65;81.39
57094;BME280;42970;50.996;3.706;2023-02-27T08:04:08;77387.28;;;-146.65;80.48
57094;BME280;42970;50.996;3.706;2023-02-27T08:06:33;77385.28;;;-146.65;79.87
57094;BME280;42970;50.996;3.706;2023-02-27T08:08:59;77371.16;;;-146.65;79.40
57094;BME280;42970;50.996;3.706;2023-02-27T08:11:24;77346.94;;;-146.65;79.29
57094;BME280;42970;50.996;3.706;2023-02-27T08:13:49;77328.78;;;-146.65;78.79
57094;BME280;42970;50.996;3.706;2023-02-27T08:16:15;77324.75;;;-146.65;78.12
57094;BME280;42970;50.996;3.706;2023-02-27T08:18:40;77308.59;;;-146.65;77.51
57094;BME280;42970;50.996;3.706;2023-02-27T08:21:05;77308.59;;;-146.65;77.02
57094;BME280;42970;50.996;3.706;2023-02-27T08:23:31;77272.28;;;-146.65;76.85
57094;BME280;42970;50.996;3.706;2023-02-27T08:25:58;77276.31;;;-146.65;75.77
57094;BME280;42970;50.996;3.706;2023-02-27T08:28:24;77264.19;;;-146.65;75.65
57094;BME280;42970;50.996;3.706;2023-02-27T08:30:49;77276.31;;;-146.65;74.47
57094;BME280;42970;50.996;3.706;2023-02-27T08:33:15;77244.03;;;-146.65;74.07
57094;BME280;42970;50.996;3.706;2023-02-27T08:35:41;77231.91;;;-146.65;73.75
57094;BME280;42970;50.996;3.706;2023-02-27T08:38:06;77235.94;;;-146.65;72.77
57094;BME280;42970;50.996;3.706;2023-02-27T08:40:31;77256.13;;;-146.65;72.49
57094;BME280;42970;50.996;3.706;2023-02-27T08:42:57;77233.94;;;-146.65;72.18
57094;BME280;42970;50.996;3.706;2023-02-27T08:45:22;77197.59;;;-146.65;71.67
57094;BME280;42970;50.996;3.706;2023-02-27T08:47:48;77187.53;;;-146.65;70.51
57094;BME280;42970;50.996;3.706;2023-02-27T08:50:13;77201.66;;;-146.65;70.03
57094;BME280;42970;50.996;3.706;2023-02-27T08:52:38;77195.59;;;-146.65;69.95
57094;BME280;42970;50.996;3.706;2023-02-27T08:55:04;77167.34;;;-146.65;69.33
57094;BME280;42970;50.996;3.706;2023-02-27T08:57:29;77153.22;;;-146.65;68.63
57094;BME280;42970;50.996;3.706;2023-02-27T08:59:54;77126.97;;;-146.65;69.25
57094;BME280;42970;50.996;3.706;2023-02-27T09:02:20;77145.16;;;-146.65;67.87
57094;BME280;42970;50.996;3.706;2023-02-27T09:04:49;77131.03;;;-146.65;67.77
57094;BME280;42970;50.996;3.706;2023-02-27T09:07:15;77126.97;;;-146.65;67.95
57094;BME280;42970;50.996;3.706;2023-02-27T09:09:40;77124.97;;;-146.65;67.75
57094;BME280;42970;50.996;3.706;2023-02-27T09:12:06;77080.56;;;-146.65;67.46
57094;BME280;42970;50.996;3.706;2023-02-27T09:14:31;77064.44;;;-146.65;65.41
57094;BME280;42970;50.996;3.706;2023-02-27T09:16:56;77058.38;;;-146.65;64.87
57094;BME280;42970;50.996;3.706;2023-02-27T09:19:22;77054.34;;;-146.65;64.31
57094;BME280;42970;50.996;3.706;2023-02-27T09:21:47;77086.63;;;-146.65;63.75
57094;BME280;42970;50.996;3.706;2023-02-27T09:24:13;77054.34;;;-146.65;63.75
57094;BME280;42970;50.996;3.706;2023-02-27T09:26:38;77042.25;;;-146.65;63.94
57094;BME280;42970;50.996;3.706;2023-02-27T09:29:04;77014.00;;;-146.65;62.56
57094;BME280;42970;50.996;3.706;2023-02-27T09:31:29;76995.81;;;-146.65;61.57
57094;BME280;42970;50.996;3.706;2023-02-27T09:33:54;76965.56;;;-146.65;60.43
57094;BME280;42970;50.996;3.706;2023-02-27T09:36:21;76927.22;;;-146.65;59.03
57094;BME280;42970;50.996;3.706;2023-02-27T09:38:47;76955.47;;;-146.65;57.74
57094;BME280;42970;50.996;3.706;2023-02-27T09:43:49;76937.31;;;-146.65;56.69
57094;BME280;42970;50.996;3.706;2023-02-27T09:46:18;76919.16;;;-146.65;55.39
57094;BME280;42970;50.996;3.706;2023-02-27T09:48:46;76864.69;;;-146.65;54.28
57094;BME280;42970;50.996;3.706;2023-02-27T09:51:13;76868.72;;;-146.65;53.92
57094;BME280;42970;50.996;3.706;2023-02-27T09:53:41;76876.78;;;-146.65;54.34
57094;BME280;42970;50.996;3.706;2023-02-27T09:56:08;76852.56;;;-146.65;54.42
57094;BME280;42970;50.996;3.706;2023-02-27T10:01:18;76838.44;;;-146.65;53.62
57094;BME280;42970;50.996;3.706;2023-02-27T10:03:50;76727.47;;;-146.65;51.52
57094;BME280;42970;50.996;3.706;2023-02-27T10:09:19;76727.47;;;-146.65;49.90
57094;BME280;42970;50.996;3.706;2023-02-27T10:14:24;76802.13;;;-146.65;50.24
57094;BME280;42970;50.996;3.706;2023-02-27T10:16:51;76703.25;;;-146.65;48.86
57094;BME280;42970;50.996;3.706;2023-02-27T10:19:20;76695.19;;;-146.65;49.01
57094;BME280;42970;50.996;3.706;2023-02-27T10:21:49;76699.22;;;-146.65;48.59
57094;BME280;42970;50.996;3.706;2023-02-27T10:26:52;76743.63;;;-146.65;47.45
57094;BME280;42970;50.996;3.706;2023-02-27T10:31:47;76719.41;;;-146.65;45.86
57094;BME280;42970;50.996;3.706;2023-02-27T10:34:17;76715.38;;;-146.65;46.31
57094;BME280;42970;50.996;3.706;2023-02-27T10:36:46;76703.25;;;-146.65;45.93
57094;BME280;42970;50.996;3.706;2023-02-27T10:39:13;76703.25;;;-146.65;46.01
57094;BME280;42970;50.996;3.706;2023-02-27T10:41:40;76695.19;;;-146.65;46.01
57094;BME280;42970;50.996;3.706;2023-02-27T10:44:08;76658.88;;;-146.65;45.90
57094;BME280;42970;50.996;3.706;2023-02-27T10:46:37;76549.91;;;-146.65;45.59
57094;BME280;42970;50.996;3.706;2023-02-27T10:51:38;76626.59;;;-146.65;44.03
57094;BME280;42970;50.996;3.706;2023-02-27T10:57:01;76620.53;;;-146.65;43.55
57094;BME280;42970;50.996;3.706;2023-02-27T10:59:35;76626.59;;;-146.65;43.56
57094;BME280;42970;50.996;3.706;2023-02-27T11:02:03;76594.31;;;-146.65;42.02
57094;BME280;42970;50.996;3.706;2023-02-27T11:04:31;76580.19;;;-146.65;41.98
57094;BME280;42970;50.996;3.706;2023-02-27T11:06:58;76600.38;;;-146.65;41.98
57094;BME280;42970;50.996;3.706;2023-02-27T11:09:26;76408.69;;;-146.65;41.06
57094;BME280;42970;50.996;3.706;2023-02-27T11:11:51;76475.28;;;-146.65;41.00
57094;BME280;42970;50.996;3.706;2023-02-27T11:16:53;76390.53;;;-146.65;40.89
57094;BME280;42970;50.996;3.706;2023-02-27T11:19:22;76394.56;;;-146.65;40.13
57094;BME280;42970;50.996;3.706;2023-02-27T11:22:02;76479.31;;;-146.65;41.35
57094;BME280;42970;50.996;3.706;2023-02-27T11:24:28;76426.84;;;-146.65;41.03
57094;BME280;42970;50.996;3.706;2023-02-27T11:27:03;76525.72;;;-146.65;41.37
57094;BME280;42970;50.996;3.706;2023-02-27T11:29:53;76485.38;;;-146.65;40.51
57094;BME280;42970;50.996;3.706;2023-02-27T11:32:19;76412.72;;;-146.65;39.65
57094;BME280;42970;50.996;3.706;2023-02-27T11:34:46;76368.34;;;-146.65;39.65
57094;BME280;42970;50.996;3.706;2023-02-27T11:37:32;76321.94;;;-146.65;39.08
57094;BME280;42970;50.996;3.706;2023-02-27T11:40:03;76410.72;;;-146.65;40.31
57094;BME280;42970;50.996;3.706;2023-02-27T11:42:42;76311.84;;;-146.65;39.93
57094;BME280;42970;50.996;3.706;2023-02-27T11:45:29;76336.06;;;-146.65;39.58
57094;BME280;42970;50.996;3.706;2023-02-27T11:47:56;76295.72;;;-146.65;38.67
57094;BME280;42970;50.996;3.706;2023-02-27T11:55:32;76221.06;;;-146.65;38.48
57094;BME280;42970;50.996;3.706;2023-02-27T11:58:03;76261.44;;;-146.65;37.95
57094;BME280;42970;50.996;3.706;2023-02-27T12:00:32;76255.38;;;-146.65;38.16
57094;BME280;42970;50.996;3.706;2023-02-27T12:10:42;76186.78;;;-146.65;36.99
57094;BME280;42970;50.996;3.706;2023-02-27T12:15:47;76283.63;;;-146.65;37.01
57094;BME280;42970;50.996;3.706;2023-02-27T12:18:16;76134.31;;;-146.65;36.94
57094;BME280;42970;50.996;3.706;2023-02-27T12:20:58;76172.66;;;-146.65;37.20
57094;BME280;42970;50.996;3.706;2023-02-27T12:25:58;76194.84;;;-146.65;36.91
57094;BME280;42970;50.996;3.706;2023-02-27T12:28:34;76114.16;;;-146.65;36.62
57094;BME280;42970;50.996;3.706;2023-02-27T12:31:25;75920.50;;;-146.65;34.86
57094;BME280;42970;50.996;3.706;2023-02-27T12:36:23;76239.22;;;-146.65;35.21
57094;BME280;42970;50.996;3.706;2023-02-27T12:38:48;76136.34;;;-146.65;35.32
57094;BME280;42970;50.996;3.706;2023-02-27T12:44:07;76213.00;;;-146.65;35.24
57094;BME280;42970;50.996;3.706;2023-02-27T12:54:18;76075.81;;;-146.65;34.59
57094;BME280;42970;50.996;3.706;2023-02-27T12:56:57;76053.63;;;-146.65;34.80
57094;BME280;42970;50.996;3.706;2023-02-27T13:04:26;76108.09;;;-146.65;33.76
57094;BME280;42970;50.996;3.706;2023-02-27T13:07:04;76077.84;;;-146.65;34.12
57094;BME280;42970;50.996;3.706;2023-02-27T13:24:57;76533.78;;;-146.65;40.21
57094;BME280;42970;50.996;3.706;2023-02-27T13:33:20;76588.25;;;-146.65;40.71
57094;BME280;42970;50.996;3.706;2023-02-27T13:35:48;76608.44;;;-146.65;40.55
57094;BME280;42970;50.996;3.706;2023-02-27T13:40:53;76586.25;;;-146.65;40.61
57094;BME280;42970;50.996;3.706;2023-02-27T13:48:42;76570.09;;;-146.65;40.47
57094;BME280;42970;50.996;3.706;2023-02-27T13:51:54;76598.34;;;-146.65;40.76
57094;BME280;42970;50.996;3.706;2023-02-27T13:56:42;76582.22;;;-146.65;40.56
57094;BME280;42970;50.996;3.706;2023-02-27T13:59:09;76568.09;;;-146.65;40.81
57094;BME280;42970;50.996;3.706;2023-02-27T14:01:35;76602.38;;;-146.65;40.66
57094;BME280;42970;50.996;3.706;2023-02-27T14:04:00;76596.31;;;-146.65;40.80
57094;BME280;42970;50.996;3.706;2023-02-27T14:06:30;76620.53;;;-146.65;40.78
57094;BME280;42970;50.996;3.706;2023-02-27T14:08:56;76620.53;;;-146.65;41.40
57094;BME280;42970;50.996;3.706;2023-02-27T14:11:27;76618.53;;;-146.65;41.92
57094;BME280;42970;50.996;3.706;2023-02-27T14:24:27;76614.50;;;-146.65;41.69
57094;BME280;42970;50.996;3.706;2023-02-27T14:26:55;76588.25;;;-146.65;41.71
57094;BME280;42970;50.996;3.706;2023-02-27T14:29:26;76582.22;;;-146.65;41.39
57094;BME280;42970;50.996;3.706;2023-02-27T14:31:59;76570.09;;;-146.65;41.84
57094;BME280;42970;50.996;3.706;2023-02-27T14:34:25;76570.09;;;-146.65;42.13
57094;BME280;42970;50.996;3.706;2023-02-27T14:36:52;76584.22;;;-146.65;41.77
57094;BME280;42970;50.996;3.706;2023-02-27T14:39:21;76594.31;;;-146.65;41.92
57094;BME280;42970;50.996;3.706;2023-02-27T14:44:28;76596.31;;;-146.65;41.84
57094;BME280;42970;50.996;3.706;2023-02-27T14:47:00;76608.44;;;-146.65;41.99
57094;BME280;42970;50.996;3.706;2023-02-27T14:49:27;76582.22;;;-146.65;42.25
57094;BME280;42970;50.996;3.706;2023-02-27T14:51:53;76560.00;;;-146.65;42.37
57094;BME280;42970;50.996;3.706;2023-02-27T14:54:22;76527.72;;;-146.65;41.90
57094;BME280;42970;50.996;3.706;2023-02-27T14:57:06;76535.81;;;-146.65;41.94
57094;BME280;42970;50.996;3.706;2023-02-27T15:02:00;76588.25;;;-146.65;42.34
57094;BME280;42970;50.996;3.706;2023-02-27T15:04:28;76624.56;;;-146.65;42.69
57094;BME280;42970;50.996;3.706;2023-02-27T15:06:55;76608.44;;;-146.65;43.28
57094;BME280;42970;50.996;3.706;2023-02-27T15:09:24;76586.25;;;-146.65;42.73
57094;BME280;42970;50.996;3.706;2023-02-27T15:11:51;76568.09;;;-146.65;43.46
57094;BME280;42970;50.996;3.706;2023-02-27T15:14:18;76570.09;;;-146.65;43.57
57094;BME280;42970;50.996;3.706;2023-02-27T15:16:45;76570.09;;;-146.65;43.55
57094;BME280;42970;50.996;3.706;2023-02-27T15:19:12;76586.25;;;-146.65;42.58
57094;BME280;42970;50.996;3.706;2023-02-27T15:21:40;76632.66;;;-146.65;43.19
57094;BME280;42970;50.996;3.706;2023-02-27T15:24:06;76652.81;;;-146.65;43.51
57094;BME280;42970;50.996;3.706;2023-02-27T15:26:36;76642.72;;;-146.65;43.71
57094;BME280;42970;50.996;3.706;2023-02-27T15:29:03;76662.91;;;-146.65;43.68
57094;BME280;42970;50.996;3.706;2023-02-27T15:31:29;76642.72;;;-146.65;43.96
57094;BME280;42970;50.996;3.706;2023-02-27T15:33:56;76646.75;;;-146.65;43.88
57094;BME280;42970;50.996;3.706;2023-02-27T15:36:23;76634.66;;;-146.65;43.98
57094;BME280;42970;50.996;3.706;2023-02-27T15:39:06;76622.56;;;-146.65;43.89